• Join FlightAware (Why Join?)
  • Login
  • US Flag 
05:47AM EDT


 

Airport Tracker/Info


-or-


 

Live Flight TrackerFlight Track Log ✈ N606FT ✈ 27-Aug-2013 ✈ KCOI - KOBE

Flight Track Log - Related Links

Times and Time Zones

All times are in EDT time to prevent confusion due to time zone crossing. See the N606FT flight status page for this flight to view local times or setup timezone preferences in your user account.

Time Position Orientation Groundspeed Altitude Reporting Facility
EDT Latitude Longitude Course Direction KTS MPH feet Rate Location/Type
05:30PM 28.3000 -80.7833 188° South 97 112 3,500  Level Orlando TRACON
05:31PM 28.2667 -80.7833 180° South 118 136 3,600  Climbing Orlando TRACON
05:32PM 28.2333 -80.8000 204° Southwest 122 140 3,600  Level Orlando TRACON
05:33PM 28.2167 -80.8000 180° South 117 135 3,600  Level Orlando TRACON
05:34PM 28.1667 -80.8000 180° South 120 138 3,600  Level Orlando TRACON
05:35PM 28.1786 -80.7107 188° South  Level Estimated
05:35PM 28.1333 -80.8000 180° South 118 136 3,600  Level Orlando TRACON
05:36PM 28.0836 -80.8056 186° South 110 127 3,600  Level Miami Center
05:37PM 28.0503 -80.8044 178° South 110 127 3,600  Level Miami Center
05:38PM 28.0192 -80.8011 175° South 115 132 3,600  Level Miami Center
05:39PM 27.9897 -80.8022 182° South 115 132 3,600  Level Miami Center
05:40PM 27.9606 -80.8036 182° South 122 140 3,600  Level Miami Center
05:41PM 27.9253 -80.8000 175° South 122 140 3,600  Level Miami Center
05:42PM 27.8961 -80.7992 179° South 117 135 3,600  Level Miami Center
05:43PM 27.8647 -80.7933 171° South 117 135 3,600  Level Miami Center
05:44PM 27.8378 -80.7878 170° South 117 135 3,600 -60 Level Miami Center
05:45PM 27.8006 -80.7817 172° South 117 135 3,500  Descending Miami Center
05:46PM 27.7711 -80.7831 182° South 117 135 3,600  Climbing Miami Center
05:47PM 27.7378 -80.7867 185° South 122 140 3,600  Level Miami Center
05:48PM 27.7125 -80.7950 196° South 122 140 3,600  Level Miami Center
05:49PM 27.6808 -80.8033 193° South 127 146 3,600  Level Miami Center
05:50PM 27.6475 -80.8000 175° South 122 140 3,600  Level Miami Center
05:51PM 27.6144 -80.7942 171° South 122 140 3,600  Level Miami Center
05:52PM 27.5853 -80.7883 170° South 122 140 3,600  Level Miami Center
05:53PM 27.5583 -80.7828 170° South 122 140 3,600  Level Miami Center
05:54PM 27.5231 -80.7769 172° South 122 140 3,600 -60 Level Miami Center
05:55PM 27.4917 -80.7733 174° South 122 140 3,500 -240 Descending Miami Center
05:56PM 27.4564 -80.7700 175° South 122 140 3,200 -300 Descending Miami Center
05:57PM 27.4250 -80.7664 174° South 122 140 3,000 -240 Descending Miami Center
05:58PM 27.3933 -80.7817 203° Southwest 122 140 2,800  Descending Miami Center
06:33PM 27.1839 -80.8075 174° South 97 112 3,000  Climbing Miami Center
06:34PM 27.1592 -80.7994 164° South 97 112 3,100  Climbing Miami Center
06:35PM 27.1344 -80.7869 156° South 102 117 3,100 -60 Level Miami Center
06:36PM 27.1053 -80.7767 163° South 107 123 3,000 -60 Descending Miami Center
06:37PM 27.0703 -80.7661 165° South 107 123 3,000  Level Miami Center
06:38PM 27.0411 -80.7583 167° South 107 123 3,000  Level Miami Center
06:39PM 27.0142 -80.7528 170° South 107 123 3,000  Level Miami Center
06:40PM 26.9831 -80.7469 171° South 107 123 3,100  Climbing Miami Center
06:41PM 26.9478 -80.7411 172° South 107 123 3,100 -60 Level Miami Center
06:42PM 26.9164 -80.7353 171° South 112 129 3,000 -60 Descending Miami Center
06:43PM 26.8875 -80.7297 170° South 112 129 3,000  Level Miami Center